Time;durP1;ratioP1;P1;durP2;ratioP2;P2;SDS_P1;SDS_P2;PMS_P1;PMS_P2;Temp;Humidity;BMP_temperature;BMP_pressure;BME280_temperature;BME280_humidity;BME280_pressure;Samples;Min_cycle;Max_cycle;Signal;HPM_P1;HPM_P2
2023/04/03 00:01:32;;;;;;;6.53;4.28;;;4.90;99.90;;;;;;5056288;28;20183;-58
2023/04/03 00:03:57;;;;;;;5.22;3.60;;;4.80;99.90;;;;;;5055978;28;20178;-58
2023/04/03 00:06:24;;;;;;;5.68;3.42;;;4.80;99.90;;;;;;5055941;28;20224;-58
2023/04/03 00:08:51;;;;;;;3.92;3.55;;;4.80;99.90;;;;;;5055890;28;20652;-58
2023/04/03 00:11:17;;;;;;;6.10;3.72;;;4.80;99.90;;;;;;5055810;28;20213;-58
2023/04/03 00:13:44;;;;;;;5.47;3.47;;;4.80;99.90;;;;;;5055757;28;20175;-58
2023/04/03 00:16:11;;;;;;;6.18;3.63;;;4.70;99.90;;;;;;5055724;28;20175;-58
2023/04/03 00:18:37;;;;;;;4.57;3.50;;;4.70;99.90;;;;;;5055957;28;20220;-58
2023/04/03 00:21:04;;;;;;;6.35;3.47;;;4.70;99.90;;;;;;5055798;28;20745;-58
2023/04/03 00:23:30;;;;;;;5.45;3.92;;;4.70;99.90;;;;;;5055508;28;20233;-58
2023/04/03 00:25:56;;;;;;;6.10;3.92;;;4.70;99.90;;;;;;5055343;28;20201;-58
2023/04/03 00:28:21;;;;;;;5.25;3.45;;;4.60;99.90;;;;;;5055541;28;20182;-58
2023/04/03 00:30:49;;;;;;;5.72;3.70;;;4.70;99.90;;;;;;5055535;28;20269;-58
2023/04/03 00:33:15;;;;;;;6.22;4.38;;;4.60;99.90;;;;;;5055338;28;20644;-58
2023/04/03 00:35:42;;;;;;;5.28;4.05;;;4.60;99.90;;;;;;5055116;28;20194;-58
2023/04/03 00:38:07;;;;;;;8.77;4.38;;;4.70;99.90;;;;;;5055362;28;20377;-58
2023/04/03 00:40:36;;;;;;;5.53;4.15;;;4.60;99.90;;;;;;5055209;28;20222;-58
2023/04/03 00:43:11;;;;;;;5.63;4.72;;;4.50;99.90;;;;;;5055267;28;20170;-58
2023/04/03 00:45:40;;;;;;;7.00;4.07;;;4.50;99.90;;;;;;5054971;28;20631;-58
2023/04/03 00:48:09;;;;;;;8.07;4.90;;;4.60;99.90;;;;;;5054697;28;20174;-58
2023/04/03 00:50:38;;;;;;;6.38;4.53;;;4.50;99.90;;;;;;5055076;28;20182;-58
2023/04/03 00:53:06;;;;;;;4.80;4.18;;;4.60;99.90;;;;;;5054989;28;20175;-58
2023/04/03 00:55:32;;;;;;;6.05;4.78;;;4.60;99.90;;;;;;5055033;28;20630;-58
2023/04/03 00:58:00;;;;;;;6.65;4.53;;;4.60;99.90;;;;;;5054946;28;20627;-58
2023/04/03 01:00:26;;;;;;;5.18;4.25;;;4.60;99.90;;;;;;5054763;28;20210;-59
2023/04/03 01:02:52;;;;;;;5.10;4.18;;;4.50;99.90;;;;;;5054780;28;20175;-58
2023/04/03 01:05:19;;;;;;;7.20;4.43;;;4.40;99.90;;;;;;5054870;28;20528;-58
2023/04/03 01:07:46;;;;;;;6.93;4.50;;;4.30;99.90;;;;;;5054749;28;20178;-58
2023/04/03 01:10:15;;;;;;;5.45;4.63;;;4.30;99.90;;;;;;5054701;28;20186;-59
2023/04/03 01:12:44;;;;;;;7.22;4.70;;;4.30;99.90;;;;;;5054666;28;20200;-58
2023/04/03 01:15:34;;;;;;;6.47;4.20;;;4.30;99.90;;;;;;5054635;28;20223;-58
2023/04/03 01:18:00;;;;;;;5.30;3.65;;;4.30;99.90;;;;;;5054533;28;20178;-58
2023/04/03 01:20:32;;;;;;;5.25;4.43;;;4.30;99.90;;;;;;5054451;28;20297;-58
2023/04/03 01:23:07;;;;;;;5.30;4.50;;;4.20;99.90;;;;;;5054166;28;20628;-58
2023/04/03 01:25:36;;;;;;;7.07;5.00;;;4.30;99.90;;;;;;5054432;28;20528;-58
2023/04/03 01:28:02;;;;;;;7.32;4.80;;;4.30;99.90;;;;;;5054357;28;20190;-58
2023/04/03 01:30:34;;;;;;;8.15;5.13;;;4.20;99.90;;;;;;5054332;28;20658;-58
2023/04/03 01:33:00;;;;;;;6.47;5.05;;;4.20;99.90;;;;;;5054329;28;20172;-58
2023/04/03 01:35:26;;;;;;;6.53;5.05;;;4.20;99.90;;;;;;5053940;28;20691;-58
2023/04/03 01:37:51;;;;;;;7.97;4.95;;;4.30;99.90;;;;;;5054181;28;20270;-58
2023/04/03 01:40:17;;;;;;;7.78;4.70;;;4.30;99.90;;;;;;5053770;28;20297;-58
2023/04/03 01:42:43;;;;;;;6.03;4.93;;;4.20;99.90;;;;;;5053791;28;20179;-58
2023/04/03 01:45:09;;;;;;;5.50;4.57;;;4.10;99.90;;;;;;5054092;28;20645;-58
2023/04/03 01:47:35;;;;;;;6.15;4.95;;;4.20;99.90;;;;;;5053978;28;20261;-58
2023/04/03 01:50:00;;;;;;;6.47;4.85;;;4.20;99.90;;;;;;5054068;28;20209;-58
2023/04/03 01:52:26;;;;;;;8.50;4.80;;;4.10;99.90;;;;;;5053984;28;20175;-58
2023/04/03 01:54:52;;;;;;;5.93;5.03;;;4.10;99.90;;;;;;5053879;28;20186;-58
2023/04/03 01:57:17;;;;;;;6.20;4.78;;;4.10;99.90;;;;;;5053870;28;20587;-58
2023/04/03 01:59:43;;;;;;;7.47;4.68;;;4.00;99.90;;;;;;5053015;28;20545;-58
2023/04/03 02:02:09;;;;;;;8.38;5.15;;;4.00;99.90;;;;;;5053625;28;20182;-58
2023/04/03 02:04:35;;;;;;;9.13;4.93;;;4.10;99.90;;;;;;5053792;28;20210;-58
2023/04/03 02:07:00;;;;;;;5.88;5.00;;;4.10;99.90;;;;;;5053639;28;20194;-58
2023/04/03 02:09:26;;;;;;;7.25;4.35;;;4.10;99.90;;;;;;5053709;28;20586;-58
2023/04/03 02:11:52;;;;;;;7.10;5.03;;;4.10;99.90;;;;;;5053631;28;20182;-58
2023/04/03 02:14:18;;;;;;;7.15;5.20;;;4.10;99.90;;;;;;5051959;28;20232;-58
2023/04/03 02:16:44;;;;;;;7.78;5.35;;;4.10;99.90;;;;;;5053541;28;20175;-60
2023/04/03 02:19:10;;;;;;;6.63;5.25;;;4.10;99.90;;;;;;5053441;28;20211;-58
2023/04/03 02:21:35;;;;;;;6.00;4.50;;;4.10;99.90;;;;;;5053283;28;20582;-58
2023/04/03 02:24:01;;;;;;;5.43;4.53;;;4.10;99.90;;;;;;5053234;28;20230;-58
2023/04/03 02:26:27;;;;;;;8.05;5.10;;;4.10;99.90;;;;;;5053420;28;20174;-58
2023/04/03 02:28:52;;;;;;;6.78;4.63;;;4.00;99.90;;;;;;5053580;28;20182;-58
2023/04/03 02:31:18;;;;;;;7.22;5.32;;;4.00;99.90;;;;;;5053073;28;20228;-58
2023/04/03 02:33:44;;;;;;;6.70;4.63;;;4.00;99.90;;;;;;5053357;28;20279;-58
2023/04/03 02:36:10;;;;;;;6.63;4.40;;;4.00;99.90;;;;;;5053328;28;20261;-58
2023/04/03 02:38:36;;;;;;;6.22;4.50;;;3.90;99.90;;;;;;5052978;28;20693;-59
2023/04/03 02:41:06;;;;;;;7.80;5.38;;;3.90;99.90;;;;;;5053197;28;20237;-58
2023/04/03 02:43:32;;;;;;;6.82;5.10;;;3.90;99.90;;;;;;5052994;28;20647;-58
2023/04/03 02:45:58;;;;;;;8.55;4.88;;;3.80;99.90;;;;;;5053195;28;20178;-58
2023/04/03 02:48:25;;;;;;;8.18;5.30;;;3.80;99.90;;;;;;5053217;28;20638;-59
2023/04/03 02:50:50;;;;;;;7.78;5.53;;;3.80;99.90;;;;;;5052847;28;20544;-58
2023/04/03 02:53:16;;;;;;;5.50;4.88;;;3.80;99.90;;;;;;5053120;28;20185;-58
2023/04/03 02:55:42;;;;;;;7.25;5.68;;;3.80;99.90;;;;;;5053275;28;20234;-58
2023/04/03 02:58:08;;;;;;;5.85;5.35;;;3.80;99.90;;;;;;5053121;28;20185;-58
2023/04/03 03:00:34;;;;;;;5.78;5.22;;;3.80;99.90;;;;;;5053004;28;20286;-58
2023/04/03 03:02:59;;;;;;;8.75;4.65;;;3.90;99.90;;;;;;5052755;28;20175;-58
2023/04/03 03:05:26;;;;;;;5.38;4.88;;;3.80;99.90;;;;;;5053100;28;20628;-58
2023/04/03 03:07:52;;;;;;;6.75;5.18;;;3.90;99.90;;;;;;5052901;28;20185;-58
2023/04/03 03:10:17;;;;;;;5.38;4.80;;;3.90;99.90;;;;;;5052747;28;20186;-58
2023/04/03 03:12:43;;;;;;;8.52;4.80;;;3.90;99.90;;;;;;5056888;28;20182;-58
2023/04/03 03:15:09;;;;;;;8.68;4.95;;;3.80;99.90;;;;;;5056955;28;20186;-58
2023/04/03 03:17:36;;;;;;;7.82;5.10;;;3.90;99.90;;;;;;5056827;28;20187;-58
2023/04/03 03:20:02;;;;;;;7.80;4.90;;;3.80;99.90;;;;;;5056768;28;20211;-58
2023/04/03 03:22:28;;;;;;;9.15;5.20;;;3.80;99.90;;;;;;5056862;28;20209;-58
2023/04/03 03:24:54;;;;;;;7.07;5.10;;;3.80;99.90;;;;;;5056835;28;20266;-58
2023/04/03 03:27:20;;;;;;;7.43;4.88;;;3.80;99.90;;;;;;5056646;28;20182;-58
2023/04/03 03:29:46;;;;;;;8.13;5.40;;;3.70;99.90;;;;;;5056622;28;20182;-58
2023/04/03 03:32:12;;;;;;;8.80;5.55;;;3.70;99.90;;;;;;5056593;28;20559;-58
2023/04/03 03:34:37;;;;;;;7.15;4.93;;;3.70;99.90;;;;;;5056563;28;20186;-58
2023/04/03 03:37:04;;;;;;;5.72;5.05;;;3.70;99.90;;;;;;5056201;28;20175;-58
2023/04/03 03:39:29;;;;;;;7.22;5.45;;;3.80;99.90;;;;;;5056427;28;20210;-58
2023/04/03 03:41:55;;;;;;;9.55;5.40;;;3.80;99.90;;;;;;5056411;28;20181;-58
2023/04/03 03:44:21;;;;;;;6.03;5.40;;;3.80;99.90;;;;;;5056369;28;20233;-58
2023/04/03 03:46:47;;;;;;;6.25;5.63;;;3.80;99.90;;;;;;5055053;28;20300;-58
2023/04/03 03:49:13;;;;;;;7.28;5.72;;;3.80;99.90;;;;;;5056350;28;20183;-58
2023/04/03 03:51:39;;;;;;;7.22;5.38;;;3.80;99.90;;;;;;5056244;28;20570;-58
2023/04/03 03:54:05;;;;;;;8.48;5.72;;;3.80;99.90;;;;;;5056203;28;20186;-58
2023/04/03 03:56:31;;;;;;;6.65;5.47;;;3.80;99.90;;;;;;5056417;28;20639;-58
2023/04/03 03:58:56;;;;;;;9.43;5.63;;;3.70;99.90;;;;;;5055993;28;20549;-58
2023/04/03 04:01:24;;;;;;;7.57;5.72;;;3.70;99.90;;;;;;5055813;28;20178;-58
2023/04/03 04:03:50;;;;;;;5.72;4.95;;;3.70;99.90;;;;;;5055945;28;20510;-58
2023/04/03 04:06:16;;;;;;;6.87;5.93;;;3.70;99.90;;;;;;5055961;28;20193;-58
2023/04/03 04:08:42;;;;;;;8.45;5.72;;;3.70;99.90;;;;;;5055924;28;20185;-58
2023/04/03 04:11:08;;;;;;;7.53;5.40;;;3.60;99.90;;;;;;5055909;28;20186;-58
2023/04/03 04:13:34;;;;;;;6.00;5.13;;;3.60;99.90;;;;;;5055590;28;20233;-58
2023/04/03 04:16:00;;;;;;;7.07;5.30;;;3.60;99.90;;;;;;5055935;28;20178;-59
2023/04/03 04:18:26;;;;;;;7.95;5.80;;;3.50;99.90;;;;;;5055720;28;20224;-58
2023/04/03 04:20:51;;;;;;;10.52;5.78;;;3.50;99.90;;;;;;5055629;28;20674;-58
2023/04/03 04:23:18;;;;;;;7.47;4.93;;;3.40;99.90;;;;;;5054551;28;20683;-58
2023/04/03 04:25:48;;;;;;;6.97;5.57;;;3.40;99.90;;;;;;5055510;28;20514;-58
2023/04/03 04:28:14;;;;;;;7.20;5.88;;;3.40;99.90;;;;;;5055480;28;20280;-58
2023/04/03 04:30:40;;;;;;;8.60;5.55;;;3.40;99.90;;;;;;5055760;28;20179;-58
2023/04/03 04:33:06;;;;;;;9.88;6.53;;;3.30;99.90;;;;;;5055481;28;20708;-58
2023/04/03 04:35:32;;;;;;;8.25;5.97;;;3.30;99.90;;;;;;5055432;28;20175;-58
2023/04/03 04:37:58;;;;;;;7.82;6.55;;;3.30;99.90;;;;;;5055674;28;20516;-58
2023/04/03 04:40:24;;;;;;;9.02;6.10;;;3.20;99.90;;;;;;5055223;28;20210;-59
2023/04/03 04:42:50;;;;;;;8.73;6.65;;;3.20;99.90;;;;;;5055135;28;20186;-58
2023/04/03 04:45:15;;;;;;;10.45;7.05;;;3.20;99.90;;;;;;5055181;28;20205;-58
2023/04/03 04:47:41;;;;;;;8.43;6.30;;;3.20;99.90;;;;;;5055132;28;20194;-58
2023/04/03 04:50:08;;;;;;;10.13;7.67;;;3.30;99.90;;;;;;5053875;28;20193;-61
2023/04/03 04:52:33;;;;;;;9.10;6.40;;;3.30;99.90;;;;;;5055059;28;20189;-58
2023/04/03 04:54:59;;;;;;;10.10;6.57;;;3.20;99.90;;;;;;5054773;28;20176;-58
2023/04/03 04:57:25;;;;;;;7.93;6.78;;;3.20;99.90;;;;;;5055133;28;20187;-59
2023/04/03 04:59:50;;;;;;;10.13;7.40;;;3.20;99.90;;;;;;5055070;28;20215;-58
2023/04/03 05:02:16;;;;;;;9.77;7.80;;;3.20;99.90;;;;;;5054606;28;20229;-56
2023/04/03 05:04:42;;;;;;;10.88;7.50;;;3.20;99.90;;;;;;5054825;28;20197;-60
2023/04/03 05:07:08;;;;;;;10.85;7.50;;;3.20;99.90;;;;;;5054737;28;20182;-58
2023/04/03 05:09:33;;;;;;;10.70;7.27;;;3.10;99.90;;;;;;5054772;28;20221;-58
2023/04/03 05:11:59;;;;;;;9.05;7.25;;;3.10;99.90;;;;;;5054708;28;20669;-58
2023/04/03 05:14:25;;;;;;;8.55;6.40;;;3.10;99.90;;;;;;5054686;28;20647;-59
2023/04/03 05:16:54;;;;;;;9.32;7.22;;;3.20;99.90;;;;;;5054654;28;20186;-59
2023/04/03 05:19:20;;;;;;;12.60;7.50;;;3.20;99.90;;;;;;5054152;28;20563;-58
2023/04/03 05:21:46;;;;;;;9.38;6.88;;;3.20;99.90;;;;;;5054549;28;20591;-58
2023/04/03 05:24:12;;;;;;;13.77;7.65;;;3.20;99.90;;;;;;5054433;28;20227;-59
2023/04/03 05:26:38;;;;;;;10.60;7.60;;;3.20;99.90;;;;;;5054459;28;20182;-59
2023/04/03 05:29:04;;;;;;;12.27;10.25;;;3.20;99.90;;;;;;5054376;28;20182;-58
2023/04/03 05:31:30;;;;;;;10.48;8.50;;;3.20;99.90;;;;;;5054322;28;20249;-58
2023/04/03 05:33:56;;;;;;;13.88;8.13;;;3.20;99.90;;;;;;5054272;28;20182;-58
2023/04/03 05:36:21;;;;;;;11.65;7.63;;;3.20;99.90;;;;;;5054295;28;20551;-58
2023/04/03 05:38:47;;;;;;;9.65;7.55;;;3.20;99.90;;;;;;5054190;28;20205;-58
2023/04/03 05:41:15;;;;;;;10.50;7.68;;;3.20;99.90;;;;;;5054074;28;20214;-59
2023/04/03 05:43:41;;;;;;;12.27;8.20;;;3.30;99.90;;;;;;5054154;28;20266;-58
2023/04/03 05:46:15;;;;;;;12.25;7.53;;;3.30;99.90;;;;;;5054133;28;20237;-58
2023/04/03 05:48:41;;;;;;;11.82;7.85;;;3.30;99.90;;;;;;5054060;28;20217;-58
2023/04/03 05:51:21;;;;;;;11.50;7.53;;;3.20;99.90;;;;;;5053961;28;20222;-58
2023/04/03 05:53:47;;;;;;;10.23;7.82;;;3.20;99.90;;;;;;5053798;28;20551;-58
2023/04/03 05:56:14;;;;;;;12.40;8.35;;;3.30;99.90;;;;;;5053909;28;20179;-58
2023/04/03 05:58:39;;;;;;;13.07;8.15;;;3.30;99.90;;;;;;5054052;28;20185;-58
2023/04/03 06:01:06;;;;;;;10.20;7.27;;;3.30;99.90;;;;;;5053708;28;20301;-58
2023/04/03 06:03:31;;;;;;;13.07;8.15;;;3.40;99.90;;;;;;5053770;28;20244;-58
2023/04/03 06:05:57;;;;;;;8.25;7.45;;;3.30;99.90;;;;;;5053779;28;20178;-58
2023/04/03 06:08:23;;;;;;;10.32;7.38;;;3.30;99.90;;;;;;5053709;28;20182;-58
2023/04/03 06:10:50;;;;;;;10.55;8.30;;;3.40;99.90;;;;;;5053320;28;20540;-59
2023/04/03 06:13:16;;;;;;;10.43;8.35;;;3.50;99.90;;;;;;5053601;28;20168;-58
2023/04/03 06:15:42;;;;;;;14.88;8.90;;;3.60;99.90;;;;;;5053584;28;20182;-58
2023/04/03 06:18:08;;;;;;;12.80;8.50;;;3.80;99.90;;;;;;5053553;28;20179;-58
2023/04/03 06:20:33;;;;;;;14.00;8.05;;;3.80;99.90;;;;;;5053376;28;20218;-58
2023/04/03 06:22:59;;;;;;;9.20;7.57;;;3.90;99.90;;;;;;5053294;28;20176;-58
2023/04/03 06:25:26;;;;;;;11.82;9.30;;;4.10;99.90;;;;;;5053771;28;20171;-58
2023/04/03 06:27:52;;;;;;;10.23;8.02;;;4.20;99.90;;;;;;5053419;28;20182;-58
2023/04/03 06:30:17;;;;;;;10.60;7.05;;;4.40;99.90;;;;;;5053384;28;20194;-58
2023/04/03 06:32:43;;;;;;;7.32;6.38;;;4.40;99.90;;;;;;5052055;28;20520;-58
2023/04/03 06:35:09;;;;;;;9.82;7.05;;;4.50;99.90;;;;;;5053288;28;20185;-58
2023/04/03 06:37:35;;;;;;;9.40;7.30;;;4.60;99.90;;;;;;5053329;28;20175;-58
2023/04/03 06:40:01;;;;;;;7.28;6.25;;;4.60;99.90;;;;;;5053244;28;20294;-58
2023/04/03 06:42:27;;;;;;;8.30;6.50;;;4.60;99.90;;;;;;5053195;28;20175;-58
2023/04/03 06:44:52;;;;;;;8.13;6.25;;;4.70;99.90;;;;;;5053264;28;20201;-58
2023/04/03 06:47:18;;;;;;;10.52;6.57;;;4.70;99.90;;;;;;5059426;28;20185;-58
2023/04/03 06:49:45;;;;;;;6.85;6.20;;;4.80;99.90;;;;;;5059548;28;20181;-58
2023/04/03 06:52:12;;;;;;;7.70;6.50;;;4.70;99.90;;;;;;5060104;28;20178;-58
2023/04/03 06:54:39;;;;;;;9.07;7.20;;;4.70;99.90;;;;;;5059704;28;20536;-59
2023/04/03 06:57:05;;;;;;;9.60;6.90;;;4.70;99.90;;;;;;5059913;28;20177;-58
2023/04/03 06:59:31;;;;;;;8.07;6.55;;;4.60;99.90;;;;;;5059734;28;20214;-58
2023/04/03 07:01:58;;;;;;;10.63;6.78;;;4.80;99.90;;;;;;5059695;28;20186;-58
2023/04/03 07:04:24;;;;;;;9.13;6.88;;;5.10;99.90;;;;;;5059701;28;20174;-58
2023/04/03 07:06:50;;;;;;;9.32;6.68;;;5.20;99.90;;;;;;5059958;28;20563;-58
2023/04/03 07:09:16;;;;;;;7.45;6.65;;;5.30;99.90;;;;;;5059665;28;20179;-58
2023/04/03 07:11:41;;;;;;;10.57;6.55;;;5.40;99.90;;;;;;5059664;28;20231;-58
2023/04/03 07:14:07;;;;;;;7.30;5.60;;;5.40;99.90;;;;;;5059946;28;20261;-58
2023/04/03 07:16:35;;;;;;;7.30;6.28;;;5.50;99.90;;;;;;5059590;28;20205;-58
2023/04/03 07:19:01;;;;;;;9.38;5.57;;;5.60;99.90;;;;;;5059422;28;20174;-58
2023/04/03 07:21:27;;;;;;;7.38;5.28;;;5.70;99.90;;;;;;5059623;28;20181;-58
2023/04/03 07:23:53;;;;;;;6.68;5.00;;;5.80;99.90;;;;;;5059523;28;20226;-58
2023/04/03 07:26:20;;;;;;;5.88;4.85;;;5.80;99.90;;;;;;5059579;28;20186;-58
2023/04/03 07:28:48;;;;;;;11.50;7.15;;;5.90;99.90;;;;;;5059412;28;20189;-58
2023/04/03 07:31:15;;;;;;;6.90;4.97;;;6.00;99.90;;;;;;5059441;28;20231;-58
2023/04/03 07:33:42;;;;;;;9.70;6.40;;;6.30;99.90;;;;;;5059520;28;20167;-58
2023/04/03 07:36:10;;;;;;;8.10;5.57;;;6.40;99.90;;;;;;5059287;28;20198;-58
2023/04/03 07:38:37;;;;;;;10.30;6.90;;;6.40;99.90;;;;;;5059423;28;20174;-59
2023/04/03 07:41:03;;;;;;;7.28;5.53;;;6.40;99.90;;;;;;5059463;28;20621;-58
2023/04/03 07:43:29;;;;;;;6.00;3.97;;;6.70;99.90;;;;;;5059407;28;20189;-58
2023/04/03 07:45:55;;;;;;;4.28;3.88;;;6.50;99.90;;;;;;5059393;28;20178;-58
2023/04/03 07:48:25;;;;;;;6.22;3.90;;;6.50;99.90;;;;;;5059348;28;20232;-58
2023/04/03 07:50:51;;;;;;;6.88;3.92;;;6.90;99.90;;;;;;5059266;28;20281;-58
2023/04/03 07:53:18;;;;;;;6.00;4.10;;;7.10;99.90;;;;;;5059261;28;20248;-58
2023/04/03 07:55:47;;;;;;;6.35;4.13;;;7.00;99.90;;;;;;5059336;28;20197;-58
2023/04/03 07:58:17;;;;;;;5.43;3.78;;;6.90;99.90;;;;;;5055666;28;20171;-59
2023/04/03 08:00:42;;;;;;;5.90;4.00;;;6.80;99.90;;;;;;5055986;28;20194;-58
2023/04/03 08:03:10;;;;;;;8.18;4.30;;;6.90;99.90;;;;;;5056102;28;20179;-58
2023/04/03 08:05:37;;;;;;;4.60;3.75;;;6.90;99.90;;;;;;5055972;28;20182;-59
2023/04/03 08:08:04;;;;;;;5.35;4.10;;;6.80;99.90;;;;;;5056001;28;20163;-58
2023/04/03 08:10:30;;;;;;;5.47;3.22;;;7.00;99.90;;;;;;5055081;28;20190;-58
2023/04/03 08:12:56;;;;;;;6.05;3.50;;;7.20;99.90;;;;;;5055858;28;20179;-58
2023/04/03 08:15:22;;;;;;;6.72;4.20;;;7.40;99.90;;;;;;5055849;28;20193;-58
2023/04/03 08:17:48;;;;;;;6.93;3.75;;;7.50;99.90;;;;;;5055774;28;20633;-59
2023/04/03 08:20:14;;;;;;;5.70;3.28;;;7.70;99.90;;;;;;5055372;28;20672;-58
2023/04/03 08:22:40;;;;;;;4.00;3.22;;;7.80;99.90;;;;;;5055580;28;20225;-58
2023/04/03 08:25:07;;;;;;;6.13;3.00;;;7.70;99.90;;;;;;5055754;28;20289;-58
2023/04/03 08:27:33;;;;;;;5.53;3.47;;;7.80;99.90;;;;;;5055518;28;20188;-58
2023/04/03 08:29:59;;;;;;;6.03;3.30;;;8.00;99.90;;;;;;5055230;28;20564;-58
2023/04/03 08:32:25;;;;;;;4.45;3.00;;;8.00;99.90;;;;;;5055595;28;20233;-58
2023/04/03 08:34:51;;;;;;;4.22;2.95;;;8.00;99.90;;;;;;5055399;28;20211;-58
2023/04/03 08:37:17;;;;;;;6.05;3.00;;;8.10;99.90;;;;;;5055389;28;20178;-58
2023/04/03 08:39:43;;;;;;;4.47;3.40;;;8.20;99.90;;;;;;5055278;28;20201;-58
2023/04/03 08:42:44;;;;;;;5.40;3.38;;;8.30;99.90;;;;;;5055380;28;20178;-58
2023/04/03 08:45:18;;;;;;;4.30;3.45;;;8.30;99.90;;;;;;5032934;28;20532;-58
2023/04/03 08:48:03;;;;;;;5.57;3.10;;;8.50;99.90;;;;;;5055360;28;20242;-58
2023/04/03 08:50:38;;;;;;;6.53;2.80;;;8.80;99.90;;;;;;5055194;28;20682;-58
2023/04/03 08:53:10;;;;;;;4.88;2.80;;;9.00;99.90;;;;;;5055334;28;20615;-58
2023/04/03 08:55:50;;;;;;;4.47;2.65;;;9.20;99.90;;;;;;5055123;28;20213;-59
2023/04/03 08:58:25;;;;;;;4.65;2.55;;;9.50;99.90;;;;;;5055076;28;20167;-58
2023/04/03 09:00:58;;;;;;;6.55;2.55;;;9.00;99.90;;;;;;5055015;28;20615;-58
2023/04/03 09:03:24;;;;;;;4.60;2.90;;;9.10;99.90;;;;;;5054973;28;20159;-59
2023/04/03 09:06:02;;;;;;;4.70;2.80;;;9.30;99.90;;;;;;5054922;28;20532;-58
2023/04/03 09:08:36;;;;;;;5.60;2.92;;;9.20;99.90;;;;;;5054240;28;20640;-58
2023/04/03 09:11:24;;;;;;;4.93;2.70;;;9.40;99.90;;;;;;5054754;28;20279;-58
2023/04/03 09:13:59;;;;;;;4.10;2.30;;;9.60;99.90;;;;;;5054586;28;20211;-58
2023/04/03 09:16:36;;;;;;;4.82;2.40;;;9.60;99.90;;;;;;5054707;28;20155;-58
2023/04/03 09:19:23;;;;;;;3.10;2.20;;;9.30;99.90;;;;;;5054513;28;20197;-58
2023/04/03 09:21:49;;;;;;;3.67;2.50;;;9.10;99.90;;;;;;5054568;28;20222;-58
2023/04/03 09:24:17;;;;;;;3.65;2.60;;;9.20;99.90;;;;;;5054480;28;20679;-58
2023/04/03 09:26:53;;;;;;;4.68;2.80;;;9.20;99.90;;;;;;5054573;28;20217;-58
2023/04/03 09:29:21;;;;;;;3.42;2.30;;;9.30;99.90;;;;;;5054217;28;20186;-58
2023/04/03 09:32:00;;;;;;;3.65;2.10;;;9.30;99.90;;;;;;5054388;28;20168;-58
2023/04/03 09:34:27;;;;;;;4.38;2.78;;;9.20;99.90;;;;;;5054470;28;20198;-58
2023/04/03 09:36:56;;;;;;;4.05;2.60;;;8.80;99.90;;;;;;5054283;28;20171;-58
2023/04/03 09:39:25;;;;;;;3.15;2.30;;;8.60;99.90;;;;;;5054219;28;20195;-58
2023/04/03 09:42:18;;;;;;;3.75;2.78;;;9.10;99.90;;;;;;5054201;28;20510;-58
2023/04/03 09:44:57;;;;;;;5.72;2.08;;;9.50;99.90;;;;;;5054210;28;20250;-58
2023/04/03 09:47:33;;;;;;;3.90;2.05;;;9.60;99.70;;;;;;5054059;28;20655;-58
2023/04/03 09:50:13;;;;;;;5.45;2.00;;;9.60;99.20;;;;;;5054070;28;20636;-58
2023/04/03 09:52:41;;;;;;;2.97;2.20;;;9.90;99.80;;;;;;5053945;28;20229;-58
2023/04/03 09:55:18;;;;;;;3.30;1.88;;;9.90;98.90;;;;;;5053999;28;20194;-58
2023/04/03 09:57:48;;;;;;;4.50;2.00;;;9.80;98.60;;;;;;5053811;28;20182;-58
2023/04/03 10:00:26;;;;;;;2.35;1.83;;;10.10;98.90;;;;;;5053550;28;20660;-58
2023/04/03 10:02:56;;;;;;;2.92;1.77;;;10.10;97.60;;;;;;5053869;28;20162;-58
2023/04/03 10:05:40;;;;;;;2.42;1.58;;;9.90;97.90;;;;;;5054050;28;20175;-58
2023/04/03 10:08:15;;;;;;;2.83;1.85;;;9.70;98.90;;;;;;5053834;28;20225;-58
2023/04/03 10:10:48;;;;;;;2.72;1.58;;;9.80;98.70;;;;;;5053660;28;20178;-58
2023/04/03 10:13:19;;;;;;;5.43;1.90;;;10.00;98.40;;;;;;5053701;28;20185;-58
2023/04/03 10:15:58;;;;;;;2.83;1.83;;;10.20;98.00;;;;;;5053710;28;20183;-58
2023/04/03 10:18:29;;;;;;;3.65;1.70;;;10.40;98.40;;;;;;5053376;28;20511;-58
2023/04/03 10:21:02;;;;;;;2.33;1.70;;;10.10;96.70;;;;;;5052725;28;20191;-58
2023/04/03 10:23:38;;;;;;;3.92;1.75;;;10.20;95.90;;;;;;5053408;28;20227;-58
2023/04/03 10:26:21;;;;;;;3.75;1.80;;;10.30;95.60;;;;;;5053665;28;20152;-58
2023/04/03 10:29:00;;;;;;;3.53;1.88;;;10.40;95.30;;;;;;5053432;28;20171;-58
2023/04/03 10:31:44;;;;;;;3.80;1.88;;;10.60;94.10;;;;;;5053190;28;20178;-58
2023/04/03 10:34:28;;;;;;;3.05;1.67;;;10.70;95.30;;;;;;5053422;28;20246;-58
2023/04/03 10:37:04;;;;;;;3.50;1.40;;;10.60;94.80;;;;;;5053277;28;20242;-58
2023/04/03 10:39:47;;;;;;;3.75;1.75;;;10.30;94.40;;;;;;5053328;28;20282;-58
2023/04/03 10:42:48;;;;;;;4.85;1.88;;;10.30;93.10;;;;;;5053422;28;20159;-59
2023/04/03 10:45:55;;;;;;;3.40;1.73;;;10.40;93.60;;;;;;5053531;28;20159;-58
2023/04/03 10:48:33;;;;;;;3.30;1.70;;;10.60;94.60;;;;;;5039079;28;20183;-58
2023/04/03 10:51:13;;;;;;;4.18;1.63;;;10.70;92.60;;;;;;5052932;28;20747;-59
2023/04/03 10:53:59;;;;;;;3.78;1.83;;;10.80;92.50;;;;;;5053195;28;20296;-59
2023/04/03 10:56:50;;;;;;;2.25;1.10;;;10.70;90.50;;;;;;5053189;28;20537;-59
2023/04/03 10:59:21;;;;;;;2.22;1.55;;;10.90;88.40;;;;;;5052604;28;20651;-59
2023/04/03 11:01:59;;;;;;;1.95;1.30;;;10.90;88.20;;;;;;5053092;28;20254;-59
2023/04/03 11:04:29;;;;;;;3.15;1.42;;;11.00;90.70;;;;;;5053055;28;20167;-59
2023/04/03 11:07:12;;;;;;;2.53;1.55;;;10.90;85.40;;;;;;5053137;28;20163;-59
2023/04/03 11:09:42;;;;;;;2.30;1.20;;;11.00;90.00;;;;;;5053403;28;20167;-59
2023/04/03 11:12:14;;;;;;;3.75;1.35;;;11.10;85.90;;;;;;5053316;28;20168;-59
2023/04/03 11:14:41;;;;;;;2.33;1.27;;;11.00;86.20;;;;;;5052914;28;20186;-59
2023/04/03 11:17:40;;;;;;;2.08;1.23;;;11.30;87.90;;;;;;5052972;28;20613;-59
2023/04/03 11:20:30;;;;;;;2.90;1.33;;;11.50;83.80;;;;;;5035362;28;20218;-59
2023/04/03 11:23:06;;;;;;;3.60;1.55;;;11.10;86.70;;;;;;5052097;28;20186;-59
2023/04/03 11:25:38;;;;;;;2.92;1.25;;;11.30;81.70;;;;;;5052050;28;20636;-59
2023/04/03 11:28:06;;;;;;;2.00;1.33;;;11.10;77.90;;;;;;5050864;28;20508;-59
2023/04/03 11:30:58;;;;;;;1.50;1.20;;;11.00;79.30;;;;;;5052225;28;20229;-59
2023/04/03 11:33:28;;;;;;;3.83;1.45;;;11.00;79.30;;;;;;5055608;28;20202;-60
2023/04/03 11:35:59;;;;;;;2.42;2.00;;;11.20;81.00;;;;;;5056247;28;20167;-58
2023/04/03 11:38:39;;;;;;;1.52;1.27;;;11.10;77.00;;;;;;5056108;28;20201;-59
2023/04/03 11:41:06;;;;;;;2.63;1.13;;;11.00;74.50;;;;;;5055890;28;20282;-59
2023/04/03 11:43:33;;;;;;;2.78;1.35;;;10.90;74.60;;;;;;5056002;28;20172;-59
2023/04/03 11:46:02;;;;;;;2.78;1.40;;;10.90;76.60;;;;;;5055502;28;20305;-59
2023/04/03 11:48:28;;;;;;;3.00;1.30;;;10.90;77.50;;;;;;5055912;28;20505;-59
2023/04/03 11:50:55;;;;;;;2.33;1.52;;;11.10;76.90;;;;;;5055460;28;20187;-59
2023/04/03 11:53:35;;;;;;;2.78;1.90;;;11.10;78.90;;;;;;5055821;28;20229;-58
2023/04/03 11:56:04;;;;;;;3.05;1.50;;;11.20;78.70;;;;;;5055600;28;20643;-59
2023/04/03 11:58:34;;;;;;;1.83;1.25;;;11.10;77.80;;;;;;5055450;28;20164;-59
2023/04/03 12:01:29;;;;;;;3.10;1.48;;;11.10;75.30;;;;;;5055351;28;20199;-59
2023/04/03 12:04:06;;;;;;;4.22;3.15;;;11.20;80.30;;;;;;5054862;28;20186;-58
2023/04/03 12:06:32;;;;;;;1.92;1.25;;;11.10;75.70;;;;;;5055338;28;20163;-59
2023/04/03 12:08:58;;;;;;;2.42;1.10;;;11.30;76.10;;;;;;5055311;28;20176;-59
2023/04/03 12:11:26;;;;;;;6.32;2.90;;;11.30;71.90;;;;;;5054775;28;20535;-60
2023/04/03 12:13:55;;;;;;;2.40;1.70;;;11.30;73.80;;;;;;5054999;28;20180;-58
2023/04/03 12:16:41;;;;;;;2.60;1.95;;;11.20;72.80;;;;;;5054948;28;20185;-59
2023/04/03 12:19:44;;;;;;;2.10;1.30;;;11.20;73.30;;;;;;5054743;28;20171;-59
2023/04/03 12:22:16;;;;;;;3.00;1.58;;;11.30;71.50;;;;;;5055109;28;20241;-58
2023/04/03 12:24:51;;;;;;;2.97;1.17;;;11.30;72.00;;;;;;5054869;28;20277;-59
2023/04/03 12:27:22;;;;;;;1.95;1.20;;;11.50;71.10;;;;;;5054816;28;20588;-59
2023/04/03 12:29:56;;;;;;;2.55;1.30;;;11.40;68.90;;;;;;5055117;28;20171;-60
2023/04/03 12:32:40;;;;;;;5.32;3.15;;;11.30;69.50;;;;;;5054830;28;20650;-59
2023/04/03 12:35:31;;;;;;;3.50;2.30;;;11.10;68.70;;;;;;5054925;28;20265;-59
2023/04/03 12:38:20;;;;;;;3.38;2.47;;;11.00;66.40;;;;;;5054662;28;20179;-59
2023/04/03 12:40:49;;;;;;;2.08;1.40;;;11.00;65.10;;;;;;5054342;28;20762;-58
2023/04/03 12:43:42;;;;;;;2.15;0.93;;;11.10;65.90;;;;;;5054083;28;20176;-58
2023/04/03 12:46:08;;;;;;;4.03;1.20;;;11.20;66.80;;;;;;5054702;28;20174;-58
2023/04/03 12:48:54;;;;;;;2.72;1.58;;;11.20;64.70;;;;;;5054529;28;20163;-59
2023/04/03 12:51:42;;;;;;;3.25;2.53;;;11.30;63.80;;;;;;5054629;28;20237;-59
2023/04/03 12:54:26;;;;;;;3.20;2.10;;;11.00;63.40;;;;;;5054062;28;20613;-58
2023/04/03 12:57:08;;;;;;;1.73;1.02;;;11.00;63.70;;;;;;5054651;28;20170;-59
2023/04/03 12:59:35;;;;;;;2.88;1.00;;;11.10;62.80;;;;;;5054269;28;20206;-59
2023/04/03 13:02:01;;;;;;;2.13;0.98;;;11.20;63.30;;;;;;5054411;28;20643;-59
2023/04/03 13:04:28;;;;;;;0.80;0.80;;;11.30;65.60;;;;;;5054238;28;20168;-58
2023/04/03 13:06:54;;;;;;;1.08;0.90;;;11.50;63.90;;;;;;5053935;28;20201;-59